Time,TemperatureF,DewpointF,PressureIn,WindDirection,WindDirectionDegrees,WindSpeedMPH,WindSpeedGustMPH,Humidity,HourlyPrecipIn,Conditions,Clouds,dailyrainin,SoftwareType,DateUTC
2013-05-04 00:12:00,42.0,41.0,-100.00,West,263,0.0,0.0,96,0.00,,,0.00,,2013-05-04 05:12:00,
2013-05-04 00:22:00,42.0,41.0,-100.00,West,263,0.0,0.0,96,0.00,,,0.00,,2013-05-04 05:22:00,
2013-05-04 00:32:00,42.0,41.0,-100.00,West,263,0.0,0.0,96,0.00,,,0.00,,2013-05-04 05:32:00,
2013-05-04 00:42:00,42.0,41.0,-100.00,West,263,0.0,0.0,96,0.00,,,0.00,,2013-05-04 05:42:00,
2013-05-04 01:11:00,41.0,40.0,-100.00,West,279,0.0,0.0,96,0.00,,,0.00,,2013-05-04 06:11:00,
2013-05-04 01:21:00,41.0,40.0,-100.00,West,279,0.0,0.0,96,0.00,,,0.00,,2013-05-04 06:21:00,
2013-05-04 01:32:00,41.0,40.0,-100.00,West,279,0.0,0.0,96,0.00,,,0.00,,2013-05-04 06:32:00,
2013-05-04 01:42:00,41.0,40.0,-100.00,West,279,0.0,0.0,96,0.00,,,0.00,,2013-05-04 06:42:00,
2013-05-04 02:11:00,40.0,39.0,-100.00,South,191,0.0,0.0,96,0.00,,,0.00,,2013-05-04 07:11:00,
2013-05-04 02:21:00,40.0,39.0,-100.00,South,191,0.0,0.0,96,0.00,,,0.00,,2013-05-04 07:21:00,
2013-05-04 02:32:00,40.0,39.0,-100.00,South,191,0.0,0.0,96,0.00,,,0.00,,2013-05-04 07:32:00,
2013-05-04 02:42:00,40.0,39.0,-100.00,South,191,0.0,0.0,96,0.00,,,0.00,,2013-05-04 07:42:00,
2013-05-04 03:11:00,39.0,38.0,-100.00,South,171,0.0,0.0,97,0.00,,,0.00,,2013-05-04 08:11:00,
2013-05-04 03:21:00,39.0,38.0,-100.00,South,171,0.0,0.0,97,0.00,,,0.00,,2013-05-04 08:21:00,
2013-05-04 03:31:00,39.0,38.0,-100.00,South,171,0.0,0.0,97,0.00,,,0.00,,2013-05-04 08:31:00,
2013-05-04 03:42:00,39.0,38.0,-100.00,South,171,0.0,0.0,97,0.00,,,0.00,,2013-05-04 08:42:00,
2013-05-04 04:11:00,38.0,37.0,-100.00,West,272,0.0,0.0,97,0.00,,,0.00,,2013-05-04 09:11:00,
2013-05-04 04:21:00,38.0,37.0,-100.00,West,272,0.0,0.0,97,0.00,,,0.00,,2013-05-04 09:21:00,
2013-05-04 04:32:00,38.0,37.0,-100.00,West,272,0.0,0.0,97,0.00,,,0.00,,2013-05-04 09:32:00,
2013-05-04 04:42:00,38.0,37.0,-100.00,West,272,0.0,0.0,97,0.00,,,0.00,,2013-05-04 09:42:00,
2013-05-04 05:12:00,38.0,37.0,-100.00,SSE,166,0.0,0.0,97,0.00,,,0.00,,2013-05-04 10:12:00,
2013-05-04 05:23:00,38.0,37.0,-100.00,SSE,166,0.0,0.0,97,0.00,,,0.00,,2013-05-04 10:23:00,
2013-05-04 05:33:00,38.0,37.0,-100.00,SSE,166,0.0,0.0,97,0.00,,,0.00,,2013-05-04 10:33:00,
2013-05-04 05:42:00,38.0,37.0,-100.00,SSE,166,0.0,0.0,97,0.00,,,0.00,,2013-05-04 10:42:00,
2013-05-04 06:11:00,37.0,36.0,-100.00,South,179,0.0,0.0,97,0.00,,,0.00,,2013-05-04 11:11:00,
2013-05-04 06:21:00,37.0,36.0,-100.00,South,179,0.0,0.0,97,0.00,,,0.00,,2013-05-04 11:21:00,
2013-05-04 06:32:00,37.0,36.0,-100.00,South,179,0.0,0.0,97,0.00,,,0.00,,2013-05-04 11:32:00,
2013-05-04 06:43:00,37.0,36.0,-100.00,South,179,0.0,0.0,97,0.00,,,0.00,,2013-05-04 11:43:00,
2013-05-04 07:14:00,38.0,37.0,-100.00,SE,135,0.0,2.0,97,0.00,,,0.00,,2013-05-04 12:14:00,
2013-05-04 07:29:00,38.0,37.0,-100.00,SE,135,0.0,2.0,97,0.00,,,0.00,,2013-05-04 12:29:00,
2013-05-04 07:36:00,38.0,37.0,-100.00,SE,135,0.0,2.0,97,0.00,,,0.00,,2013-05-04 12:36:00,
2013-05-04 07:42:00,38.0,37.0,-100.00,SE,135,0.0,2.0,97,0.00,,,0.00,,2013-05-04 12:42:00,
2013-05-04 08:11:00,46.0,45.0,-100.00,ESE,109,0.0,0.0,96,0.00,,,0.00,,2013-05-04 13:11:00,
2013-05-04 08:21:00,46.0,45.0,-100.00,ESE,109,0.0,0.0,96,0.00,,,0.00,,2013-05-04 13:21:00,
2013-05-04 08:32:00,46.0,45.0,-100.00,ESE,109,0.0,0.0,96,0.00,,,0.00,,2013-05-04 13:32:00,
2013-05-04 08:42:00,46.0,45.0,-100.00,ESE,109,0.0,0.0,96,0.00,,,0.00,,2013-05-04 13:42:00,
2013-05-04 09:11:00,55.0,41.0,-100.00,SW,228,4.0,6.0,58,0.00,,,0.00,,2013-05-04 14:11:00,
2013-05-04 09:21:00,55.0,41.0,-100.00,SW,228,4.0,6.0,58,0.00,,,0.00,,2013-05-04 14:21:00,
2013-05-04 09:32:00,55.0,41.0,-100.00,SW,228,4.0,6.0,58,0.00,,,0.00,,2013-05-04 14:32:00,
2013-05-04 09:42:00,55.0,41.0,-100.00,SW,228,4.0,6.0,58,0.00,,,0.00,,2013-05-04 14:42:00,
2013-05-04 10:12:00,61.0,40.0,-100.00,West,259,6.0,12.0,45,0.00,,,0.00,,2013-05-04 15:12:00,
2013-05-04 10:22:00,61.0,40.0,-100.00,West,259,6.0,12.0,45,0.00,,,0.00,,2013-05-04 15:22:00,
2013-05-04 10:33:00,61.0,40.0,-100.00,West,259,6.0,12.0,45,0.00,,,0.00,,2013-05-04 15:33:00,
2013-05-04 10:43:00,61.0,40.0,-100.00,West,259,6.0,12.0,45,0.00,,,0.00,,2013-05-04 15:43:00,
2013-05-04 11:12:00,65.0,36.0,-100.00,WSW,249,8.0,14.0,34,0.00,,,0.00,,2013-05-04 16:12:00,
2013-05-04 11:22:00,65.0,36.0,-100.00,WSW,249,8.0,14.0,34,0.00,,,0.00,,2013-05-04 16:22:00,
2013-05-04 11:33:00,65.0,36.0,-100.00,WSW,249,8.0,14.0,34,0.00,,,0.00,,2013-05-04 16:33:00,
2013-05-04 11:42:00,65.0,36.0,-100.00,WSW,249,8.0,14.0,34,0.00,,,0.00,,2013-05-04 16:42:00,
2013-05-04 12:12:00,68.0,35.0,-100.00,WSW,238,7.0,13.0,29,0.00,,,0.00,,2013-05-04 17:12:00,
2013-05-04 12:22:00,68.0,35.0,-100.00,WSW,238,7.0,13.0,29,0.00,,,0.00,,2013-05-04 17:22:00,
2013-05-04 12:32:00,68.0,35.0,-100.00,WSW,238,7.0,13.0,29,0.00,,,0.00,,2013-05-04 17:32:00,
2013-05-04 12:42:00,68.0,35.0,-100.00,WSW,238,7.0,13.0,29,0.00,,,0.00,,2013-05-04 17:42:00,
2013-05-04 13:12:00,69.0,33.0,-100.00,SW,219,8.0,16.0,26,0.00,,,0.00,,2013-05-04 18:12:00,
2013-05-04 13:21:00,69.0,33.0,-100.00,SW,219,8.0,16.0,26,0.00,,,0.00,,2013-05-04 18:21:00,
2013-05-04 13:32:00,69.0,33.0,-100.00,SW,219,8.0,16.0,26,0.00,,,0.00,,2013-05-04 18:32:00,
2013-05-04 13:42:00,69.0,33.0,-100.00,SW,219,8.0,16.0,26,0.00,,,0.00,,2013-05-04 18:42:00,
2013-05-04 14:11:00,72.0,35.0,-100.00,West,265,8.0,15.0,26,0.00,,,0.00,,2013-05-04 19:11:00,
2013-05-04 14:21:00,72.0,35.0,-100.00,West,265,8.0,15.0,26,0.00,,,0.00,,2013-05-04 19:21:00,
2013-05-04 14:32:00,72.0,35.0,-100.00,West,265,8.0,15.0,26,0.00,,,0.00,,2013-05-04 19:32:00,
2013-05-04 14:42:00,72.0,35.0,-100.00,West,265,8.0,15.0,26,0.00,,,0.00,,2013-05-04 19:42:00,
2013-05-04 15:11:00,73.0,35.0,-100.00,WSW,257,8.0,16.0,25,0.00,,,0.00,,2013-05-04 20:11:00,
2013-05-04 15:22:00,73.0,35.0,-100.00,WSW,257,8.0,16.0,25,0.00,,,0.00,,2013-05-04 20:22:00,
2013-05-04 15:32:00,73.0,35.0,-100.00,WSW,257,8.0,16.0,25,0.00,,,0.00,,2013-05-04 20:32:00,
2013-05-04 15:42:00,73.0,35.0,-100.00,WSW,257,8.0,16.0,25,0.00,,,0.00,,2013-05-04 20:42:00,
2013-05-04 16:12:00,75.0,38.0,-100.00,WSW,254,9.0,20.0,26,0.00,,,0.00,,2013-05-04 21:12:00,
2013-05-04 16:22:00,75.0,38.0,-100.00,WSW,254,9.0,20.0,26,0.00,,,0.00,,2013-05-04 21:22:00,
2013-05-04 16:33:00,75.0,38.0,-100.00,WSW,254,9.0,20.0,26,0.00,,,0.00,,2013-05-04 21:33:00,
2013-05-04 16:43:00,75.0,38.0,-100.00,WSW,254,9.0,20.0,26,0.00,,,0.00,,2013-05-04 21:43:00,
2013-05-04 17:12:00,75.0,37.0,-100.00,WNW,286,7.0,17.0,25,0.00,,,0.00,,2013-05-04 22:12:00,
2013-05-04 17:22:00,75.0,37.0,-100.00,WNW,286,7.0,17.0,25,0.00,,,0.00,,2013-05-04 22:22:00,
2013-05-04 17:33:00,75.0,37.0,-100.00,WNW,286,7.0,17.0,25,0.00,,,0.00,,2013-05-04 22:33:00,
2013-05-04 17:42:00,75.0,37.0,-100.00,WNW,286,7.0,17.0,25,0.00,,,0.00,,2013-05-04 22:42:00,
2013-05-04 18:12:00,76.0,37.0,-100.00,West,260,8.0,17.0,24,0.00,,,-99.99,,2013-05-04 23:12:00,
2013-05-04 18:22:00,76.0,37.0,-100.00,West,260,8.0,17.0,24,0.00,,,-99.99,,2013-05-04 23:22:00,
2013-05-04 18:32:00,76.0,37.0,-100.00,West,260,8.0,17.0,24,0.00,,,-99.99,,2013-05-04 23:32:00,
2013-05-04 18:42:00,76.0,37.0,-100.00,West,260,8.0,17.0,24,0.00,,,-99.99,,2013-05-04 23:42:00,
2013-05-04 19:11:00,75.0,35.0,-100.00,WNW,285,8.0,17.0,23,0.00,,,0.00,,2013-05-05 00:11:00,
2013-05-04 19:21:00,75.0,35.0,-100.00,WNW,285,8.0,17.0,23,0.00,,,0.00,,2013-05-05 00:21:00,
2013-05-04 19:32:00,75.0,35.0,-100.00,WNW,285,8.0,17.0,23,0.00,,,0.00,,2013-05-05 00:32:00,
2013-05-04 19:42:00,75.0,35.0,-100.00,WNW,285,8.0,17.0,23,0.00,,,0.00,,2013-05-05 00:42:00,
2013-05-04 20:11:00,70.0,36.0,-100.00,NW,305,4.0,7.0,29,0.00,,,0.00,,2013-05-05 01:11:00,
2013-05-04 20:21:00,70.0,36.0,-100.00,NW,305,4.0,7.0,29,0.00,,,0.00,,2013-05-05 01:21:00,
2013-05-04 20:32:00,70.0,36.0,-100.00,NW,305,4.0,7.0,29,0.00,,,0.00,,2013-05-05 01:32:00,
2013-05-04 20:42:00,70.0,36.0,-100.00,NW,305,4.0,7.0,29,0.00,,,0.00,,2013-05-05 01:42:00,
2013-05-04 21:11:00,64.0,39.0,-100.00,WNW,295,1.0,3.0,40,0.00,,,0.00,,2013-05-05 02:11:00,
2013-05-04 21:22:00,64.0,39.0,-100.00,WNW,295,1.0,3.0,40,0.00,,,0.00,,2013-05-05 02:22:00,
2013-05-04 21:32:00,64.0,39.0,-100.00,WNW,295,1.0,3.0,40,0.00,,,0.00,,2013-05-05 02:32:00,
2013-05-04 21:42:00,64.0,39.0,-100.00,WNW,295,1.0,3.0,40,0.00,,,0.00,,2013-05-05 02:42:00,
2013-05-04 22:11:00,63.0,40.0,-100.00,North,3,4.0,7.0,42,0.00,,,0.00,,2013-05-05 03:11:00,
2013-05-04 22:22:00,63.0,40.0,-100.00,North,3,4.0,7.0,42,0.00,,,0.00,,2013-05-05 03:22:00,
2013-05-04 22:33:00,63.0,40.0,-100.00,North,3,4.0,7.0,42,0.00,,,0.00,,2013-05-05 03:33:00,
2013-05-04 22:42:00,63.0,40.0,-100.00,North,3,4.0,7.0,42,0.00,,,0.00,,2013-05-05 03:42:00,
2013-05-04 23:12:00,61.0,38.0,-100.00,NNE,16,4.0,10.0,43,0.00,,,0.00,,2013-05-05 04:12:00,
2013-05-04 23:23:00,61.0,38.0,-100.00,NNE,16,4.0,10.0,43,0.00,,,0.00,,2013-05-05 04:23:00,
2013-05-04 23:32:00,61.0,38.0,-100.00,NNE,16,4.0,10.0,43,0.00,,,0.00,,2013-05-05 04:32:00,
2013-05-04 23:43:00,61.0,38.0,-100.00,NNE,16,4.0,10.0,43,0.00,,,0.00,,2013-05-05 04:43:00,